West Hazleton, Pennsylvania
Current Conditions -  °F | °C
As of 3:55 PM on Thursday 18 Dec 2014 (Local Time) from KHZL Reporting Station
Overcast Overcast  
Wind Chill: 25°   Ceiling: 1700
Heat Index: 32°   Visibility: 10mi
Dew Point: 27°   Wind: 8mph
Humidity: 80%   Direction: 280°W
Pressure: 30"   Gusts: 17mph
Location:  40.9393°N, 75.992°W
Report Text: KHZL 182055Z AUTO 28007G15KT 10SM OVC017 00/M03 A3000 RMK AO2
Loading
Personal Weather Stations






























Interactive Weather Map New forecast layout! Learn more

10-Day Weather Forecast

Advertisements
Track Severe Weather on mobile